Time;durP1;ratioP1;P1;durP2;ratioP2;P2;SDS_P1;SDS_P2;PMS_P1;PMS_P2;Temp;Humidity;BMP_temperature;BMP_pressure;BME280_temperature;BME280_humidity;BME280_pressure;Samples;Min_cycle;Max_cycle;Signal;HPM_P1;HPM_P2
2021/04/10 00:00:09;;;;;;;7.45;3.88;;;;;;;6.83;72.02;95812.78;1027919;28;20019;-61
2021/04/10 00:00:40;;;;;;;9.95;4.35;;;;;;;6.85;71.51;95813.44;1023950;29;20023;-61
2021/04/10 00:01:11;;;;;;;6.13;3.70;;;;;;;6.86;72.07;95815.13;1028056;28;20107;-62
2021/04/10 00:01:42;;;;;;;6.90;4.00;;;;;;;6.79;71.68;95808.78;1027948;28;20459;-61
2021/04/10 00:02:13;;;;;;;10.00;3.90;;;;;;;6.83;70.60;95809.28;1028006;28;20014;-61
2021/04/10 00:02:43;;;;;;;7.10;3.35;;;;;;;6.84;71.31;95814.44;1027875;28;20030;-61
2021/04/10 00:03:14;;;;;;;10.50;4.22;;;;;;;6.83;70.81;95812.78;1031825;28;20025;-61
2021/04/10 00:03:45;;;;;;;8.02;3.85;;;;;;;6.76;71.02;95804.66;1031643;28;20018;-62
2021/04/10 00:04:15;;;;;;;7.18;3.80;;;;;;;6.79;71.09;95819.34;1027844;28;20021;-61
2021/04/10 00:04:46;;;;;;;8.70;4.30;;;;;;;6.78;71.15;95817.69;1031996;28;20379;-61
2021/04/10 00:05:26;;;;;;;7.25;3.65;;;;;;;6.78;71.28;95817.69;1031899;28;20018;-61
2021/04/10 00:05:57;;;;;;;8.75;4.43;;;;;;;6.72;71.91;95816.53;1027726;28;20019;-62
2021/04/10 00:06:27;;;;;;;7.03;4.30;;;;;;;6.72;71.96;95815.66;1023852;29;20118;-61
2021/04/10 00:06:58;;;;;;;7.88;4.28;;;;;;;6.63;71.21;95806.88;1027946;28;20500;-62
2021/04/10 00:07:29;;;;;;;8.07;4.63;;;;;;;6.65;71.81;95812.00;1028005;28;20097;-61
2021/04/10 00:08:00;;;;;;;9.02;4.00;;;;;;;6.64;72.29;95813.81;1031822;28;20129;-61
2021/04/10 00:08:31;;;;;;;6.93;3.90;;;;;;;6.61;72.68;95822.03;1031917;28;20022;-60
2021/04/10 00:09:03;;;;;;;6.72;4.05;;;;;;;6.56;72.33;95806.66;1027942;28;20027;-61
2021/04/10 00:09:33;;;;;;;6.93;3.58;;;;;;;6.57;72.19;95805.69;1035989;28;20014;-61
2021/04/10 00:10:07;;;;;;;7.70;4.15;;;;;;;6.53;72.27;95811.41;1019831;29;20063;-62
2021/04/10 00:10:38;;;;;;;7.75;3.70;;;;;;;6.51;72.79;95813.38;1031891;28;20022;-61
2021/04/10 00:11:09;;;;;;;8.90;4.15;;;;;;;6.51;72.12;95814.22;1027864;28;20018;-62
2021/04/10 00:11:40;;;;;;;8.32;3.95;;;;;;;6.49;72.62;95810.91;1019928;29;20019;-61
2021/04/10 00:12:11;;;;;;;8.77;3.67;;;;;;;6.46;72.81;95811.22;1027813;28;20031;-61
2021/04/10 00:12:42;;;;;;;10.45;3.92;;;;;;;6.46;73.44;95807.75;1027890;28;20015;-59
2021/04/10 00:13:12;;;;;;;9.55;4.47;;;;;;;6.46;73.44;95810.38;1020100;29;20024;-60
2021/04/10 00:13:43;;;;;;;7.80;3.85;;;;;;;6.42;72.94;95810.69;1019750;29;20206;-59
2021/04/10 00:14:15;;;;;;;9.95;3.97;;;;;;;6.41;73.47;95809.03;1019754;28;20032;-60
2021/04/10 00:14:45;;;;;;;8.05;4.07;;;;;;;6.38;73.21;95811.97;1023932;28;20492;-60
2021/04/10 00:15:17;;;;;;;8.40;3.95;;;;;;;6.35;73.84;95812.28;1031934;28;20078;-61
2021/04/10 00:15:48;;;;;;;10.48;4.68;;;;;;;6.34;73.84;95809.78;1035882;28;20506;-61
2021/04/10 00:16:18;;;;;;;8.10;3.95;;;;;;;6.30;74.61;95808.44;1031764;28;20029;-61
2021/04/10 00:16:49;;;;;;;7.95;3.83;;;;;;;6.20;74.65;95801.47;1031943;28;20117;-61
2021/04/10 00:17:20;;;;;;;9.40;3.70;;;;;;;6.29;74.47;95812.06;1027869;28;20026;-62
2021/04/10 00:17:51;;;;;;;8.90;3.75;;;;;;;6.26;74.27;95812.38;1027824;28;20054;-62
2021/04/10 00:18:21;;;;;;;7.13;3.63;;;;;;;6.14;74.63;95801.25;1031846;28;20033;-62
2021/04/10 00:18:52;;;;;;;8.98;4.53;;;;;;;6.18;74.97;95811.34;1023956;29;20159;-62
2021/04/10 00:19:23;;;;;;;7.65;4.30;;;;;;;6.14;74.52;95803.88;1023775;29;20032;-61
2021/04/10 00:19:53;;;;;;;6.43;3.70;;;;;;;6.18;74.56;95810.50;1031836;28;20022;-61
2021/04/10 00:20:24;;;;;;;6.65;3.95;;;;;;;6.18;73.86;95818.41;1023796;29;20026;-60
2021/04/10 00:20:55;;;;;;;5.68;3.55;;;;;;;6.17;73.59;95811.50;1035924;28;20033;-62
2021/04/10 00:21:26;;;;;;;7.15;3.97;;;;;;;6.12;74.12;95800.56;1032096;28;20014;-61
2021/04/10 00:21:57;;;;;;;5.28;3.42;;;;;;;6.11;75.15;95812.91;1031856;28;20454;-61
2021/04/10 00:22:27;;;;;;;8.85;3.88;;;;;;;6.10;74.97;95808.63;1031809;28;20022;-61
2021/04/10 00:22:58;;;;;;;7.32;3.80;;;;;;;6.12;74.76;95806.66;1027696;28;20022;-61
2021/04/10 00:23:29;;;;;;;8.02;3.90;;;;;;;6.12;74.76;95805.84;1027614;28;20038;-60
2021/04/10 00:23:59;;;;;;;7.10;3.67;;;;;;;6.09;74.74;95801.69;1019803;29;20023;-62
2021/04/10 00:24:30;;;;;;;6.80;3.83;;;;;;;6.09;74.42;95801.69;1023655;29;20445;-61
2021/04/10 00:25:01;;;;;;;7.82;3.70;;;;;;;6.09;74.28;95809.59;1023859;29;20454;-61
2021/04/10 00:25:31;;;;;;;7.72;3.78;;;;;;;6.07;74.01;95805.47;1031828;28;20018;-61
2021/04/10 00:26:02;;;;;;;7.50;3.65;;;;;;;6.03;74.45;95802.31;1027876;28;20539;-62
2021/04/10 00:26:33;;;;;;;8.10;4.25;;;;;;;6.02;75.66;95808.56;1031793;28;20484;-60
2021/04/10 00:27:05;;;;;;;5.50;3.42;;;;;;;6.01;75.66;95799.00;1027887;28;20460;-60
2021/04/10 00:27:36;;;;;;;7.25;3.80;;;;;;;6.00;75.29;95807.88;1031879;28;20018;-62
2021/04/10 00:28:06;;;;;;;6.93;3.85;;;;;;;5.99;75.37;95803.56;1027762;28;20054;-61
2021/04/10 00:28:37;;;;;;;6.95;4.10;;;;;;;5.98;75.83;95805.38;1035859;28;20045;-61
2021/04/10 00:29:08;;;;;;;7.10;3.15;;;;;;;5.97;75.88;95802.91;1027797;28;20018;-62
2021/04/10 00:29:39;;;;;;;6.38;3.53;;;;;;;5.91;76.00;95803.50;1027816;28;20023;-61
2021/04/10 00:30:12;;;;;;;7.25;3.72;;;;;;;5.91;76.33;95806.13;1023853;28;20026;-62
2021/04/10 00:30:43;;;;;;;7.35;3.33;;;;;;;5.89;76.43;95806.28;1023798;29;20027;-62
2021/04/10 00:31:14;;;;;;;6.55;3.97;;;;;;;5.88;75.98;95801.97;1027781;28;20187;-62
2021/04/10 00:31:45;;;;;;;6.95;4.32;;;;;;;5.85;76.70;95804.91;1027867;28;20152;-61
2021/04/10 00:32:16;;;;;;;7.45;3.78;;;;;;;5.83;76.57;95805.06;1024032;28;20023;-61
2021/04/10 00:32:47;;;;;;;8.15;4.10;;;;;;;5.82;76.68;95805.22;1027750;28;20025;-62
2021/04/10 00:33:17;;;;;;;7.05;3.67;;;;;;;5.78;76.79;95793.31;1027740;28;20077;-61
2021/04/10 00:33:48;;;;;;;7.30;3.55;;;;;;;5.76;76.43;95804.00;1019731;28;20705;-61
2021/04/10 00:34:19;;;;;;;6.68;3.38;;;;;;;5.75;76.88;95796.25;1023734;29;20441;-61
2021/04/10 00:34:49;;;;;;;5.88;3.53;;;;;;;5.75;76.70;95802.34;1023829;29;20127;-61
2021/04/10 00:35:20;;;;;;;7.88;3.72;;;;;;;5.73;76.27;95806.94;1019776;29;20024;-61
2021/04/10 00:35:51;;;;;;;7.43;4.25;;;;;;;5.69;76.46;95786.31;1019850;29;20027;-63
2021/04/10 00:36:22;;;;;;;5.93;3.78;;;;;;;5.74;76.54;95799.88;1023836;29;20118;-61
2021/04/10 00:36:53;;;;;;;12.50;4.18;;;;;;;5.70;76.95;95796.69;1035892;28;20380;-61
2021/04/10 00:37:24;;;;;;;7.22;3.85;;;;;;;5.70;76.94;95795.88;1031704;28;20048;-62
2021/04/10 00:37:56;;;;;;;9.23;3.90;;;;;;;5.66;77.46;95795.34;1031760;28;20029;-60
2021/04/10 00:38:29;;;;;;;8.15;3.38;;;;;;;5.64;78.14;95798.13;1027934;28;20019;-62
2021/04/10 00:39:00;;;;;;;6.75;3.50;;;;;;;5.64;78.20;95797.28;1031751;28;20033;-62
2021/04/10 00:39:30;;;;;;;6.35;3.58;;;;;;;5.06;78.28;95701.06;1031592;28;20018;-61
2021/04/10 00:40:04;;;;;;;9.30;3.90;;;;;;;5.62;78.07;95792.16;1031933;28;20484;-62
2021/04/10 00:40:34;;;;;;;6.35;3.50;;;;;;;5.59;77.80;95789.00;1023808;29;20514;-62
2021/04/10 00:41:07;;;;;;;6.97;3.88;;;;;;;5.57;78.47;95793.59;1031769;28;20132;-61
2021/04/10 00:41:38;;;;;;;8.15;3.88;;;;;;;5.58;78.20;95805.78;1027694;28;20093;-61
2021/04/10 00:42:09;;;;;;;6.97;3.40;;;;;;;5.50;78.64;95785.44;1019795;29;20051;-62
2021/04/10 00:42:40;;;;;;;11.00;3.70;;;;;;;5.55;78.23;95790.28;1023647;29;20035;-63
2021/04/10 00:43:11;;;;;;;6.70;3.53;;;;;;;5.53;78.92;95792.25;1027793;28;20015;-62
2021/04/10 00:43:42;;;;;;;8.02;3.17;;;;;;;5.51;78.96;95799.47;1023560;29;20026;-60
2021/04/10 00:44:13;;;;;;;9.73;3.83;;;;;;;5.49;78.82;95799.63;1027710;28;20022;-60
2021/04/10 00:44:44;;;;;;;6.93;3.75;;;;;;;5.48;79.00;95797.94;1023720;28;20046;-62
2021/04/10 00:45:15;;;;;;;9.57;3.63;;;;;;;5.48;79.49;95793.50;1023761;28;20477;-61
2021/04/10 00:45:46;;;;;;;7.50;4.03;;;;;;;5.46;79.13;95790.19;1035709;28;20037;-61
2021/04/10 00:46:17;;;;;;;7.20;4.15;;;;;;;5.44;79.86;95793.97;1031948;28;20526;-61
2021/04/10 00:46:48;;;;;;;8.45;3.58;;;;;;;5.43;79.54;95798.41;1023800;28;20018;-61
2021/04/10 00:47:19;;;;;;;6.07;3.83;;;;;;;5.42;79.08;95795.91;1031790;28;20627;-60
2021/04/10 00:47:49;;;;;;;6.70;3.78;;;;;;;5.41;79.28;95796.88;1023782;29;20026;-63
2021/04/10 00:48:20;;;;;;;8.98;3.67;;;;;;;5.38;79.15;95799.81;1023708;29;20015;-61
2021/04/10 00:48:51;;;;;;;9.65;3.72;;;;;;;5.38;78.99;95800.66;1031455;28;20483;-62
2021/04/10 00:49:22;;;;;;;8.05;3.58;;;;;;;5.35;79.46;95802.75;1027649;28;20030;-61
2021/04/10 00:49:52;;;;;;;13.07;3.78;;;;;;;5.35;79.88;95798.31;1027662;28;20026;-61
2021/04/10 00:50:23;;;;;;;8.02;3.83;;;;;;;5.35;79.91;95800.13;1027740;28;20104;-60
2021/04/10 00:50:54;;;;;;;8.50;3.60;;;;;;;5.33;79.74;95800.25;1035804;28;20014;-61
2021/04/10 00:51:25;;;;;;;7.20;3.53;;;;;;;5.26;80.13;95794.75;1031695;28;20117;-61
2021/04/10 00:51:56;;;;;;;5.82;3.20;;;;;;;5.31;79.65;95796.91;1031670;28;20029;-60
2021/04/10 00:52:26;;;;;;;8.07;3.65;;;;;;;5.31;79.45;95799.56;1031759;28;20118;-61
2021/04/10 00:52:57;;;;;;;7.57;3.58;;;;;;;5.29;79.73;95799.72;1031849;28;20049;-61
2021/04/10 00:53:28;;;;;;;7.55;3.70;;;;;;;5.29;79.25;95810.25;1027716;28;20137;-61
2021/04/10 00:53:58;;;;;;;6.47;3.65;;;;;;;5.28;79.57;95798.06;1031470;28;20510;-60
2021/04/10 00:54:29;;;;;;;8.27;3.45;;;;;;;5.27;79.70;95806.09;1023717;29;20493;-58
2021/04/10 00:55:01;;;;;;;6.03;4.00;;;;;;;5.25;80.24;95798.34;1019822;29;20526;-60
2021/04/10 00:55:31;;;;;;;5.88;3.83;;;;;;;5.18;79.91;95791.19;1031799;28;20022;-61
2021/04/10 00:56:04;;;;;;;7.75;3.42;;;;;;;5.24;80.08;95804.59;1023662;28;20023;-60
2021/04/10 00:56:35;;;;;;;7.07;3.17;;;;;;;5.25;80.16;95800.97;1031781;28;20388;-61
2021/04/10 00:57:07;;;;;;;9.30;3.45;;;;;;;5.23;80.21;95804.75;1027852;28;20507;-61
2021/04/10 00:57:37;;;;;;;7.40;3.53;;;;;;;5.24;80.28;95801.13;1019865;29;20020;-62
2021/04/10 00:58:08;;;;;;;8.43;3.97;;;;;;;5.23;79.87;95800.31;1019696;29;20024;-62
2021/04/10 00:58:39;;;;;;;9.85;3.70;;;;;;;5.22;80.17;95792.53;1019800;29;20015;-61
2021/04/10 00:59:10;;;;;;;7.15;4.13;;;;;;;5.21;80.27;95797.00;1027767;28;20509;-61
2021/04/10 00:59:41;;;;;;;7.10;3.90;;;;;;;5.22;80.08;95795.19;1031759;28;20014;-61
2021/04/10 01:00:12;;;;;;;9.07;3.72;;;;;;;5.21;80.49;95802.25;1019852;29;20032;-61
2021/04/10 01:00:43;;;;;;;6.28;3.45;;;;;;;5.15;80.33;95791.47;1027727;28;20014;-61
2021/04/10 01:01:13;;;;;;;7.55;4.13;;;;;;;5.20;80.41;95791.88;1035784;28;20018;-61
2021/04/10 01:01:44;;;;;;;7.65;4.07;;;;;;;5.16;80.19;95799.22;1027702;28;20051;-60
2021/04/10 01:02:15;;;;;;;8.43;3.53;;;;;;;5.17;80.55;95795.59;1035620;28;20029;-60
2021/04/10 01:02:45;;;;;;;8.48;3.55;;;;;;;5.16;80.04;95790.50;1023754;29;20019;-61
2021/04/10 01:03:16;;;;;;;8.80;3.75;;;;;;;5.16;79.94;95793.16;1027658;28;20049;-61
2021/04/10 01:03:47;;;;;;;6.03;3.40;;;;;;;5.12;80.82;95797.03;1035567;28;20525;-61
2021/04/10 01:04:18;;;;;;;5.45;3.40;;;;;;;5.12;80.74;95786.50;1027554;28;20015;-61
2021/04/10 01:04:48;;;;;;;7.15;3.80;;;;;;;5.12;80.70;95789.97;1023752;28;20022;-61
2021/04/10 01:05:19;;;;;;;6.90;3.72;;;;;;;5.09;80.34;95793.72;1027682;28;20118;-61
2021/04/10 01:05:50;;;;;;;6.45;3.58;;;;;;;5.07;81.10;95794.84;1027601;28;20015;-61
2021/04/10 01:06:21;;;;;;;6.53;3.30;;;;;;;5.06;81.20;95788.75;1031595;28;20032;-61
2021/04/10 01:06:51;;;;;;;5.78;3.83;;;;;;;5.08;80.93;95797.31;1035817;28;20361;-61
2021/04/10 01:07:22;;;;;;;7.97;3.53;;;;;;;5.03;80.68;95789.06;1023752;29;20023;-62
2021/04/10 01:07:53;;;;;;;7.40;3.53;;;;;;;5.07;80.96;95795.66;1031680;28;20026;-60
2021/04/10 01:08:23;;;;;;;6.35;3.60;;;;;;;5.09;80.65;95793.72;1027544;28;20519;-61
2021/04/10 01:08:54;;;;;;;6.43;3.00;;;;;;;5.07;81.07;95792.22;1035728;28;20060;-61
2021/04/10 01:09:25;;;;;;;8.73;4.38;;;;;;;5.05;80.96;95797.63;1031656;28;20113;-61
2021/04/10 01:09:56;;;;;;;7.40;3.40;;;;;;;5.05;80.51;95797.63;1023721;29;20046;-61
2021/04/10 01:10:27;;;;;;;5.55;3.00;;;;;;;5.04;81.37;95795.97;1035713;28;20100;-60
2021/04/10 01:11:12;;;;;;;6.80;3.25;;;;;;;5.03;81.37;95796.94;1035679;28;20092;-60
2021/04/10 01:11:55;;;;;;;6.75;3.85;;;;;;;5.04;81.28;95788.06;1023755;29;20078;-62
2021/04/10 01:12:31;;;;;;;9.10;3.53;;;;;;;5.02;81.76;95792.66;1019628;29;20036;-61
2021/04/10 01:13:13;;;;;;;7.80;3.42;;;;;;;5.02;81.32;95799.72;1027767;28;20025;-61
2021/04/10 01:13:56;;;;;;;9.57;3.88;;;;;;;4.99;81.22;95794.75;1019535;29;20031;-62
2021/04/10 01:14:36;;;;;;;8.77;4.28;;;;;;;4.99;81.26;95797.38;1019586;29;20481;-60
2021/04/10 01:15:14;;;;;;;7.93;3.30;;;;;;;4.96;81.29;95797.66;1027646;28;20023;-60
2021/04/10 01:15:56;;;;;;;5.53;3.03;;;;;;;4.87;81.39;95788.84;1027677;28;20042;-61
2021/04/10 01:16:30;;;;;;;8.57;3.55;;;;;;;4.90;81.83;95793.81;1027659;28;20527;-62
2021/04/10 01:17:07;;;;;;;6.30;2.95;;;;;;;4.93;81.85;95800.56;1026610;28;20133;-61
2021/04/10 01:17:51;;;;;;;7.47;3.40;;;;;;;4.94;81.27;95800.44;1023671;29;20030;-62
2021/04/10 01:18:32;;;;;;;7.35;3.83;;;;;;;4.94;82.26;95804.88;1022948;29;20027;-61
2021/04/10 01:19:13;;;;;;;7.70;3.50;;;;;;;4.93;82.14;95790.91;1031579;28;20459;-62
2021/04/10 01:20:04;;;;;;;8.90;3.22;;;;;;;4.93;82.04;95797.94;1039925;28;20025;-61
2021/04/10 01:20:46;;;;;;;9.43;3.40;;;;;;;4.82;82.18;95786.63;1035689;28;20120;-61
2021/04/10 01:21:32;;;;;;;8.05;3.85;;;;;;;4.88;81.55;95791.31;1033511;28;20488;-61
2021/04/10 01:22:09;;;;;;;7.10;3.53;;;;;;;4.86;82.66;95792.41;1031736;28;20069;-60
2021/04/10 01:23:00;;;;;;;7.60;3.50;;;;;;;4.84;82.60;95789.97;1027592;28;20022;-62
2021/04/10 01:23:41;;;;;;;7.03;3.35;;;;;;;4.85;82.14;95785.53;1031592;28;20029;-61
2021/04/10 01:24:31;;;;;;;7.35;3.95;;;;;;;4.84;82.28;95795.22;1035632;28;20024;-62
2021/04/10 01:25:05;;;;;;;8.85;3.53;;;;;;;4.83;82.90;95793.56;1031511;28;20029;-62
2021/04/10 01:25:56;;;;;;;8.10;3.47;;;;;;;4.82;82.49;95791.06;1027531;28;20516;-61
2021/04/10 01:26:50;;;;;;;9.75;4.10;;;;;;;4.78;82.85;95795.78;1027638;28;20007;-62
2021/04/10 01:27:24;;;;;;;6.15;3.90;;;;;;;4.80;82.55;95795.66;1035400;28;20015;-61
2021/04/10 01:27:57;;;;;;;6.75;3.85;;;;;;;4.79;82.69;95792.19;1030677;28;20022;-61
2021/04/10 01:28:44;;;;;;;7.78;3.67;;;;;;;4.77;82.66;95801.19;1023570;29;20083;-62
2021/04/10 01:29:15;;;;;;;6.35;3.45;;;;;;;4.73;83.06;95798.84;1023670;29;20027;-61
2021/04/10 01:29:50;;;;;;;6.95;3.97;;;;;;;4.69;83.78;95796.66;1027563;28;20586;-61
2021/04/10 01:30:20;;;;;;;7.03;3.35;;;;;;;4.69;83.37;95802.72;1023779;29;20043;-60
2021/04/10 01:30:51;;;;;;;7.95;3.58;;;;;;;4.62;83.52;95793.75;1027640;28;20074;-62
2021/04/10 01:31:24;;;;;;;7.20;3.17;;;;;;;4.68;83.88;95800.25;1023504;29;20062;-61
2021/04/10 01:31:56;;;;;;;8.35;3.70;;;;;;;4.67;84.07;95799.44;1023796;29;20521;-61
2021/04/10 01:32:29;;;;;;;7.40;3.35;;;;;;;4.66;84.26;95792.50;1023601;29;20140;-61
2021/04/10 01:33:10;;;;;;;8.82;3.78;;;;;;;4.64;84.03;95794.44;1024588;28;20023;-61
2021/04/10 01:33:45;;;;;;;6.80;3.60;;;;;;;4.62;84.19;95798.19;1031402;28;20465;-62
2021/04/10 01:34:28;;;;;;;6.97;3.60;;;;;;;4.62;84.26;95809.53;1023568;29;20525;-62
2021/04/10 01:35:08;;;;;;;7.70;3.60;;;;;;;4.62;83.92;95793.75;1023603;28;20023;-61
2021/04/10 01:35:43;;;;;;;7.20;3.22;;;;;;;4.61;83.99;95805.25;1031495;28;20018;-62
2021/04/10 01:36:16;;;;;;;7.25;3.63;;;;;;;4.62;84.54;95799.03;1023676;28;20012;-61
2021/04/10 01:36:46;;;;;;;6.32;3.67;;;;;;;4.60;84.78;95805.38;1023689;29;20509;-61
2021/04/10 01:37:20;;;;;;;7.53;3.33;;;;;;;4.60;84.88;95802.75;1035617;28;20014;-59
2021/04/10 01:37:59;;;;;;;6.10;3.35;;;;;;;4.59;85.22;95803.75;1027509;28;20057;-61
2021/04/10 01:38:30;;;;;;;8.45;3.85;;;;;;;4.57;85.47;95800.44;1031796;28;20392;-61
2021/04/10 01:39:03;;;;;;;6.00;3.45;;;;;;;4.56;85.61;95807.47;1031571;28;20010;-61
2021/04/10 01:39:34;;;;;;;7.85;4.00;;;;;;;4.58;85.57;95804.69;1019581;29;20031;-62
2021/04/10 01:40:05;;;;;;;6.93;3.72;;;;;;;4.57;85.73;95803.88;1031589;28;20019;-61
2021/04/10 01:40:36;;;;;;;7.60;3.53;;;;;;;4.59;85.33;95793.22;1027643;28;20011;-61
2021/04/10 01:41:07;;;;;;;8.20;4.03;;;;;;;4.58;85.88;95807.34;1031588;28;20023;-60
2021/04/10 01:41:42;;;;;;;6.78;3.92;;;;;;;4.58;85.63;95809.97;1031631;28;20464;-61
2021/04/10 01:42:13;;;;;;;10.02;3.95;;;;;;;4.58;85.33;95800.28;1023614;28;20014;-61
2021/04/10 01:42:44;;;;;;;9.10;4.00;;;;;;;4.58;85.46;95800.28;1023570;29;20046;-61
2021/04/10 01:43:15;;;;;;;7.50;4.18;;;;;;;4.53;85.11;95792.81;1035591;28;20517;-60
2021/04/10 01:43:46;;;;;;;8.60;4.07;;;;;;;4.55;85.38;95792.69;1023369;29;20063;-61
2021/04/10 01:44:17;;;;;;;7.43;3.70;;;;;;;4.56;85.61;95801.38;1019631;29;20045;-61
2021/04/10 01:44:50;;;;;;;7.78;3.75;;;;;;;4.57;85.52;95801.25;1023647;29;20074;-61
2021/04/10 01:45:21;;;;;;;7.32;3.92;;;;;;;4.55;86.11;95805.81;1020207;29;20035;-60
2021/04/10 01:45:51;;;;;;;5.50;3.35;;;;;;;4.56;85.72;95801.38;1027532;28;20043;-61
2021/04/10 01:46:23;;;;;;;7.93;3.85;;;;;;;4.56;85.57;95786.44;1027577;28;20023;-60
2021/04/10 01:46:54;;;;;;;6.50;3.80;;;;;;;4.45;85.37;95782.19;1027571;28;20030;-62
2021/04/10 01:47:24;;;;;;;9.90;3.85;;;;;;;4.59;85.57;95801.94;1019563;29;20066;-61
2021/04/10 01:47:58;;;;;;;6.75;3.55;;;;;;;4.60;85.76;95787.81;1019677;29;20030;-63
2021/04/10 01:48:29;;;;;;;7.85;3.67;;;;;;;4.65;84.93;95801.38;1031607;28;20101;-60
2021/04/10 01:49:00;;;;;;;6.88;3.60;;;;;;;4.61;85.12;95794.72;1031647;28;20023;-61
2021/04/10 01:49:31;;;;;;;6.95;3.70;;;;;;;4.65;85.46;95792.63;1023604;29;20390;-61
2021/04/10 01:50:04;;;;;;;7.82;3.42;;;;;;;4.64;85.31;95797.06;1035645;28;20054;-61
2021/04/10 01:50:35;;;;;;;6.85;3.30;;;;;;;4.65;84.56;95796.13;1039737;28;20099;-62
2021/04/10 01:51:06;;;;;;;5.03;3.13;;;;;;;4.66;85.04;95791.69;1031488;28;20423;-62
2021/04/10 01:51:37;;;;;;;6.63;3.60;;;;;;;4.70;85.07;95790.41;1031473;28;20022;-61
2021/04/10 01:52:08;;;;;;;11.27;3.95;;;;;;;4.72;84.63;95785.84;1027463;28;20025;-61
2021/04/10 01:52:39;;;;;;;6.70;3.47;;;;;;;4.69;84.72;95786.97;1031457;28;20023;-61
2021/04/10 01:53:10;;;;;;;6.90;3.70;;;;;;;4.68;84.76;95793.19;1035646;28;20056;-61
2021/04/10 01:53:41;;;;;;;5.95;3.35;;;;;;;4.70;85.21;95788.63;1023465;29;20388;-61
2021/04/10 01:54:11;;;;;;;5.72;3.60;;;;;;;4.68;85.33;95787.91;1027373;28;20512;-60
2021/04/10 01:54:42;;;;;;;8.02;3.80;;;;;;;4.71;84.77;95790.25;1023502;29;20023;-60
2021/04/10 01:55:13;;;;;;;6.68;3.55;;;;;;;4.72;84.99;95796.38;1027566;28;20027;-61
2021/04/10 01:55:47;;;;;;;7.63;3.58;;;;;;;4.70;84.74;95788.63;1027565;28;20062;-60
2021/04/10 01:56:19;;;;;;;8.45;3.90;;;;;;;4.70;84.88;95790.41;1027474;28;20504;-61
2021/04/10 01:56:49;;;;;;;9.73;4.22;;;;;;;4.69;84.68;95792.22;1023638;29;20498;-60
2021/04/10 01:57:20;;;;;;;7.75;3.30;;;;;;;4.73;84.43;95793.56;1031634;28;20022;-61
2021/04/10 01:57:51;;;;;;;6.60;3.80;;;;;;;4.70;84.92;95791.25;1027556;28;20029;-61
2021/04/10 01:58:22;;;;;;;6.55;3.72;;;;;;;4.75;85.06;95793.44;1031457;28;20148;-62
2021/04/10 01:58:53;;;;;;;6.75;3.28;;;;;;;4.67;85.40;95788.91;1035584;28;20045;-60
2021/04/10 01:59:23;;;;;;;7.97;3.85;;;;;;;4.79;85.34;95791.34;1023654;28;20032;-61
2021/04/10 01:59:54;;;;;;;6.30;3.67;;;;;;;4.81;84.88;95798.13;1027585;28;20023;-61
2021/04/10 02:00:26;;;;;;;7.25;4.07;;;;;;;4.76;84.79;95796.91;1031640;28;20018;-61
2021/04/10 02:00:57;;;;;;;13.32;4.30;;;;;;;4.80;84.52;95798.28;1031627;28;20410;-61
2021/04/10 02:01:28;;;;;;;6.78;3.60;;;;;;;4.72;85.35;95802.47;1028465;28;20031;-59
2021/04/10 02:01:59;;;;;;;5.38;3.20;;;;;;;4.70;85.69;95801.78;1020506;29;20031;-61
2021/04/10 02:02:29;;;;;;;7.47;3.47;;;;;;;4.70;84.95;95798.28;1024280;29;20563;-60
2021/04/10 02:03:00;;;;;;;9.57;3.55;;;;;;;4.78;84.71;95808.13;1024471;29;20405;-61
2021/04/10 02:03:31;;;;;;;6.85;3.58;;;;;;;4.75;85.38;95796.06;1028384;28;20146;-59
2021/04/10 02:04:02;;;;;;;10.23;4.10;;;;;;;4.79;85.56;95802.72;1036408;28;20029;-61
2021/04/10 02:04:36;;;;;;;7.55;3.67;;;;;;;4.76;85.59;95795.09;1028332;28;20058;-61
2021/04/10 02:05:10;;;;;;;7.05;3.70;;;;;;;4.79;85.79;95801.88;1024374;29;20580;-61
2021/04/10 02:05:40;;;;;;;8.27;3.50;;;;;;;4.77;85.55;95798.56;1024356;29;20019;-62
2021/04/10 02:06:12;;;;;;;8.27;3.70;;;;;;;4.81;84.72;95805.22;1028352;28;20015;-61
2021/04/10 02:06:45;;;;;;;7.70;3.85;;;;;;;4.79;84.40;95807.13;1036398;28;20014;-60
2021/04/10 02:07:16;;;;;;;7.72;3.53;;;;;;;4.81;84.61;95794.69;1028860;28;20029;-62
2021/04/10 02:07:48;;;;;;;7.57;3.55;;;;;;;4.83;84.11;95805.88;1031814;28;20022;-61
2021/04/10 02:08:19;;;;;;;6.30;3.47;;;;;;;4.84;83.67;95799.63;1028359;28;20019;-62
2021/04/10 02:08:51;;;;;;;7.20;3.20;;;;;;;4.89;83.45;95802.66;1032413;28;20093;-62
2021/04/10 02:09:23;;;;;;;7.68;3.40;;;;;;;4.92;83.31;95805.00;1024629;29;20050;-62
2021/04/10 02:09:53;;;;;;;8.45;3.50;;;;;;;4.95;83.58;95803.91;1024395;29;20011;-61
2021/04/10 02:10:24;;;;;;;6.53;3.13;;;;;;;4.91;84.15;95800.72;1024381;28;20020;-60
2021/04/10 02:10:55;;;;;;;6.38;3.67;;;;;;;4.85;83.80;95802.13;1020232;29;20367;-60
2021/04/10 02:11:26;;;;;;;7.85;3.60;;;;;;;4.85;83.88;95801.31;1028336;28;20015;-61
2021/04/10 02:11:57;;;;;;;8.35;3.67;;;;;;;4.91;84.13;95806.81;1024320;29;20011;-61
2021/04/10 02:12:28;;;;;;;7.97;3.45;;;;;;;4.86;85.15;95800.31;1024347;29;20194;-61
2021/04/10 02:12:58;;;;;;;6.22;2.90;;;;;;;4.82;86.23;95804.22;1032217;28;20105;-61
2021/04/10 02:13:30;;;;;;;7.07;3.55;;;;;;;4.81;86.44;95799.94;1024215;28;20011;-60
2021/04/10 02:14:02;;;;;;;8.73;3.78;;;;;;;4.82;86.06;95802.41;1036302;28;20417;-62
2021/04/10 02:14:33;;;;;;;7.97;3.42;;;;;;;4.85;85.63;95806.56;1032308;28;20011;-61
2021/04/10 02:15:05;;;;;;;7.35;4.03;;;;;;;4.86;85.38;95800.31;1024226;29;20102;-60
2021/04/10 02:15:36;;;;;;;5.03;2.95;;;;;;;4.90;85.06;95799.91;1016514;29;20020;-60
2021/04/10 02:16:07;;;;;;;5.75;3.22;;;;;;;4.94;84.76;95800.44;1024328;29;20015;-62
2021/04/10 02:16:39;;;;;;;8.10;3.38;;;;;;;4.98;85.38;95804.44;1016513;29;20016;-61
2021/04/10 02:17:10;;;;;;;7.20;3.15;;;;;;;4.95;84.93;95801.28;1020391;29;20446;-62
2021/04/10 02:17:40;;;;;;;6.50;3.30;;;;;;;4.92;85.22;95805.00;1028428;28;20021;-61
2021/04/10 02:18:11;;;;;;;6.45;3.78;;;;;;;4.88;85.81;95803.66;1016461;29;20028;-62
2021/04/10 02:18:42;;;;;;;7.18;3.70;;;;;;;4.87;85.28;95802.00;1028347;28;20018;-61
2021/04/10 02:19:13;;;;;;;6.53;3.72;;;;;;;4.93;85.44;95800.56;1024196;29;20011;-61
2021/04/10 02:19:45;;;;;;;6.18;3.47;;;;;;;4.97;85.59;95800.16;1036432;28;20089;-60
2021/04/10 02:20:16;;;;;;;8.95;3.47;;;;;;;4.91;85.18;95792.81;1036347;28;20025;-61
2021/04/10 02:20:47;;;;;;;7.57;3.50;;;;;;;5.02;84.15;95797.09;1032326;28;20096;-61
2021/04/10 02:21:25;;;;;;;5.20;3.05;;;;;;;4.98;84.27;95800.97;1024235;29;20071;-61
2021/04/10 02:21:57;;;;;;;8.30;3.35;;;;;;;4.98;84.08;95795.69;1036326;28;20037;-61
2021/04/10 02:22:33;;;;;;;9.38;3.60;;;;;;;4.91;85.03;95801.56;1024296;29;20018;-60
2021/04/10 02:23:04;;;;;;;8.25;3.92;;;;;;;4.91;85.48;95804.19;1032233;28;20014;-62
2021/04/10 02:23:38;;;;;;;6.97;3.15;;;;;;;4.95;84.29;95796.84;1024068;29;20015;-61
2021/04/10 02:24:10;;;;;;;7.68;3.30;;;;;;;4.98;84.52;95799.19;1028283;28;20094;-60
2021/04/10 02:24:40;;;;;;;7.50;3.58;;;;;;;4.96;85.54;95803.75;1032286;28;20013;-61
2021/04/10 02:25:12;;;;;;;6.30;2.90;;;;;;;5.02;85.07;95804.97;1028332;28;20046;-61
2021/04/10 02:25:42;;;;;;;8.02;3.33;;;;;;;5.04;84.41;95798.59;1028086;28;20023;-60
2021/04/10 02:26:13;;;;;;;7.30;3.17;;;;;;;4.99;83.72;95795.56;1020328;29;20026;-62
2021/04/10 02:26:44;;;;;;;7.20;3.28;;;;;;;5.06;83.48;95794.00;1028231;28;20433;-61
2021/04/10 02:27:15;;;;;;;7.40;3.00;;;;;;;5.06;82.19;95795.81;1032276;28;20057;-61
2021/04/10 02:27:46;;;;;;;7.32;3.05;;;;;;;5.09;82.46;95798.16;1028172;28;20015;-61
2021/04/10 02:28:17;;;;;;;6.72;3.22;;;;;;;5.08;83.50;95799.94;1032343;28;20019;-60
2021/04/10 02:28:47;;;;;;;6.28;3.20;;;;;;;5.02;83.46;95792.66;1028303;28;20054;-61
2021/04/10 02:29:18;;;;;;;9.02;3.10;;;;;;;5.04;83.35;95795.97;1032457;28;20072;-61
2021/04/10 02:29:49;;;;;;;5.38;3.03;;;;;;;5.07;84.02;95803.56;1024206;29;20493;-61
2021/04/10 02:30:20;;;;;;;6.72;3.50;;;;;;;5.10;83.74;95792.75;1032449;28;20015;-61
2021/04/10 02:30:51;;;;;;;6.05;2.95;;;;;;;5.13;83.84;95798.69;1024268;28;20367;-61
2021/04/10 02:31:25;;;;;;;5.45;3.05;;;;;;;5.09;83.64;95798.16;1028204;28;20018;-61
2021/04/10 02:32:02;;;;;;;9.43;3.42;;;;;;;5.13;83.25;95796.06;1028255;28;20059;-61
2021/04/10 02:32:47;;;;;;;8.52;3.45;;;;;;;5.14;82.82;95790.66;1024224;29;20097;-61
2021/04/10 02:33:22;;;;;;;8.02;3.03;;;;;;;5.12;82.49;95794.41;1020437;29;20039;-62
2021/04/10 02:33:55;;;;;;;9.38;3.25;;;;;;;5.11;83.50;95796.22;1028060;28;20447;-61
2021/04/10 02:34:26;;;;;;;8.57;3.60;;;;;;;5.08;83.26;95784.16;1032390;28;20018;-62